sensor_id;sensor_type;location;lat;lon;timestamp;P1;durP1;ratioP1;P2;durP2;ratioP2
69434;SDS011;56625;54.322;18.582;2022-12-18T00:02:23;22.20;;;7.40;;
69434;SDS011;56625;54.322;18.582;2022-12-18T00:04:51;16.50;;;5.10;;
69434;SDS011;56625;54.322;18.582;2022-12-18T00:07:19;20.00;;;6.10;;
69434;SDS011;56625;54.322;18.582;2022-12-18T00:09:47;20.00;;;5.10;;
69434;SDS011;56625;54.322;18.582;2022-12-18T00:12:15;13.30;;;4.50;;
69434;SDS011;56625;54.322;18.582;2022-12-18T00:14:43;16.30;;;5.50;;
69434;SDS011;56625;54.322;18.582;2022-12-18T00:17:11;16.80;;;5.50;;
69434;SDS011;56625;54.322;18.582;2022-12-18T00:19:39;19.40;;;7.00;;
69434;SDS011;56625;54.322;18.582;2022-12-18T00:22:06;21.30;;;6.00;;
69434;SDS011;56625;54.322;18.582;2022-12-18T00:24:34;14.30;;;4.90;;
69434;SDS011;56625;54.322;18.582;2022-12-18T00:27:02;18.40;;;6.10;;
69434;SDS011;56625;54.322;18.582;2022-12-18T00:29:30;15.40;;;4.50;;
69434;SDS011;56625;54.322;18.582;2022-12-18T00:31:58;11.60;;;4.10;;
69434;SDS011;56625;54.322;18.582;2022-12-18T00:34:26;21.60;;;6.20;;
69434;SDS011;56625;54.322;18.582;2022-12-18T00:36:54;19.60;;;5.70;;
69434;SDS011;56625;54.322;18.582;2022-12-18T00:39:22;12.00;;;3.70;;
69434;SDS011;56625;54.322;18.582;2022-12-18T00:41:49;15.50;;;4.50;;
69434;SDS011;56625;54.322;18.582;2022-12-18T00:44:56;14.60;;;4.10;;
69434;SDS011;56625;54.322;18.582;2022-12-18T00:47:24;18.80;;;5.50;;
69434;SDS011;56625;54.322;18.582;2022-12-18T00:49:52;10.00;;;3.00;;
69434;SDS011;56625;54.322;18.582;2022-12-18T00:52:20;17.30;;;4.40;;
69434;SDS011;56625;54.322;18.582;2022-12-18T00:54:47;14.70;;;3.70;;
69434;SDS011;56625;54.322;18.582;2022-12-18T00:57:15;9.90;;;3.40;;
69434;SDS011;56625;54.322;18.582;2022-12-18T00:59:43;15.60;;;4.70;;
69434;SDS011;56625;54.322;18.582;2022-12-18T01:02:14;15.10;;;4.80;;
69434;SDS011;56625;54.322;18.582;2022-12-18T01:04:42;8.70;;;3.20;;
69434;SDS011;56625;54.322;18.582;2022-12-18T01:07:10;12.30;;;3.00;;
69434;SDS011;56625;54.322;18.582;2022-12-18T01:09:38;16.60;;;4.20;;
69434;SDS011;56625;54.322;18.582;2022-12-18T01:12:06;12.00;;;4.30;;
69434;SDS011;56625;54.322;18.582;2022-12-18T01:14:34;18.70;;;4.40;;
69434;SDS011;56625;54.322;18.582;2022-12-18T01:17:01;14.40;;;3.80;;
69434;SDS011;56625;54.322;18.582;2022-12-18T01:19:31;12.80;;;4.30;;
69434;SDS011;56625;54.322;18.582;2022-12-18T01:21:59;13.20;;;3.80;;
69434;SDS011;56625;54.322;18.582;2022-12-18T01:24:27;17.50;;;5.10;;
69434;SDS011;56625;54.322;18.582;2022-12-18T01:26:55;18.60;;;5.80;;
69434;SDS011;56625;54.322;18.582;2022-12-18T01:29:24;33.00;;;8.80;;
69434;SDS011;56625;54.322;18.582;2022-12-18T01:31:55;14.70;;;3.90;;
69434;SDS011;56625;54.322;18.582;2022-12-18T01:34:24;16.20;;;4.80;;
69434;SDS011;56625;54.322;18.582;2022-12-18T01:36:52;17.10;;;4.60;;
69434;SDS011;56625;54.322;18.582;2022-12-18T01:39:20;10.80;;;2.90;;
69434;SDS011;56625;54.322;18.582;2022-12-18T01:41:48;17.40;;;5.30;;
69434;SDS011;56625;54.322;18.582;2022-12-18T01:52:58;16.50;;;6.00;;
69434;SDS011;56625;54.322;18.582;2022-12-18T01:55:29;13.30;;;4.60;;
69434;SDS011;56625;54.322;18.582;2022-12-18T01:58:03;15.80;;;4.20;;
69434;SDS011;56625;54.322;18.582;2022-12-18T02:00:33;26.80;;;7.80;;
69434;SDS011;56625;54.322;18.582;2022-12-18T02:03:02;20.00;;;6.40;;
69434;SDS011;56625;54.322;18.582;2022-12-18T02:05:41;24.70;;;7.00;;
69434;SDS011;56625;54.322;18.582;2022-12-18T02:14:18;22.20;;;6.90;;
69434;SDS011;56625;54.322;18.582;2022-12-18T02:25:44;20.00;;;5.50;;
69434;SDS011;56625;54.322;18.582;2022-12-18T02:28:36;16.20;;;4.20;;
69434;SDS011;56625;54.322;18.582;2022-12-18T02:31:13;16.50;;;5.10;;
69434;SDS011;56625;54.322;18.582;2022-12-18T02:33:44;21.50;;;6.50;;
69434;SDS011;56625;54.322;18.582;2022-12-18T02:36:15;15.60;;;4.20;;
69434;SDS011;56625;54.322;18.582;2022-12-18T02:38:45;20.50;;;6.60;;
69434;SDS011;56625;54.322;18.582;2022-12-18T02:41:15;14.80;;;5.20;;
69434;SDS011;56625;54.322;18.582;2022-12-18T02:44:00;31.30;;;9.70;;
69434;SDS011;56625;54.322;18.582;2022-12-18T02:46:35;20.90;;;6.10;;
69434;SDS011;56625;54.322;18.582;2022-12-18T02:49:24;16.00;;;5.30;;
69434;SDS011;56625;54.322;18.582;2022-12-18T02:57:55;16.60;;;5.80;;
69434;SDS011;56625;54.322;18.582;2022-12-18T03:01:01;20.90;;;6.10;;
69434;SDS011;56625;54.322;18.582;2022-12-18T03:03:56;17.80;;;4.70;;
69434;SDS011;56625;54.322;18.582;2022-12-18T03:06:44;21.40;;;7.90;;
69434;SDS011;56625;54.322;18.582;2022-12-18T03:09:47;20.40;;;6.20;;
69434;SDS011;56625;54.322;18.582;2022-12-18T03:12:37;17.60;;;5.90;;
69434;SDS011;56625;54.322;18.582;2022-12-18T03:15:24;15.70;;;4.80;;
69434;SDS011;56625;54.322;18.582;2022-12-18T03:18:14;20.30;;;7.30;;
69434;SDS011;56625;54.322;18.582;2022-12-18T03:20:50;13.00;;;3.90;;
69434;SDS011;56625;54.322;18.582;2022-12-18T03:23:23;14.40;;;4.70;;
69434;SDS011;56625;54.322;18.582;2022-12-18T03:25:56;15.50;;;5.40;;
69434;SDS011;56625;54.322;18.582;2022-12-18T03:28:38;18.20;;;4.60;;
69434;SDS011;56625;54.322;18.582;2022-12-18T03:31:12;12.10;;;3.70;;
69434;SDS011;56625;54.322;18.582;2022-12-18T03:33:54;19.00;;;6.30;;
69434;SDS011;56625;54.322;18.582;2022-12-18T03:36:26;16.50;;;4.50;;
69434;SDS011;56625;54.322;18.582;2022-12-18T03:38:54;10.30;;;3.50;;
69434;SDS011;56625;54.322;18.582;2022-12-18T03:44:37;19.30;;;5.50;;
69434;SDS011;56625;54.322;18.582;2022-12-18T03:50:19;15.90;;;4.70;;
69434;SDS011;56625;54.322;18.582;2022-12-18T03:52:51;15.00;;;4.90;;
69434;SDS011;56625;54.322;18.582;2022-12-18T03:55:21;14.30;;;3.00;;
69434;SDS011;56625;54.322;18.582;2022-12-18T03:57:51;15.90;;;4.70;;
69434;SDS011;56625;54.322;18.582;2022-12-18T04:00:20;12.70;;;5.00;;
69434;SDS011;56625;54.322;18.582;2022-12-18T04:02:51;13.50;;;4.00;;
69434;SDS011;56625;54.322;18.582;2022-12-18T04:05:24;13.40;;;4.80;;
69434;SDS011;56625;54.322;18.582;2022-12-18T04:07:55;12.50;;;3.90;;
69434;SDS011;56625;54.322;18.582;2022-12-18T04:10:23;10.50;;;3.40;;
69434;SDS011;56625;54.322;18.582;2022-12-18T04:12:55;15.40;;;5.60;;
69434;SDS011;56625;54.322;18.582;2022-12-18T04:15:24;14.30;;;4.30;;
69434;SDS011;56625;54.322;18.582;2022-12-18T04:17:52;13.70;;;4.40;;
69434;SDS011;56625;54.322;18.582;2022-12-18T04:20:20;17.70;;;5.50;;
69434;SDS011;56625;54.322;18.582;2022-12-18T04:22:48;13.90;;;5.00;;
69434;SDS011;56625;54.322;18.582;2022-12-18T04:25:16;9.90;;;3.00;;
69434;SDS011;56625;54.322;18.582;2022-12-18T04:27:44;10.00;;;2.50;;
69434;SDS011;56625;54.322;18.582;2022-12-18T04:30:12;8.20;;;2.80;;
69434;SDS011;56625;54.322;18.582;2022-12-18T04:32:40;16.50;;;4.50;;
69434;SDS011;56625;54.322;18.582;2022-12-18T04:35:08;13.10;;;4.00;;
69434;SDS011;56625;54.322;18.582;2022-12-18T04:37:38;11.00;;;3.40;;
69434;SDS011;56625;54.322;18.582;2022-12-18T04:40:06;11.50;;;3.60;;
69434;SDS011;56625;54.322;18.582;2022-12-18T04:42:34;14.60;;;5.00;;
69434;SDS011;56625;54.322;18.582;2022-12-18T04:45:02;6.50;;;2.20;;
69434;SDS011;56625;54.322;18.582;2022-12-18T04:47:30;15.80;;;5.20;;
69434;SDS011;56625;54.322;18.582;2022-12-18T04:49:58;8.90;;;3.10;;
69434;SDS011;56625;54.322;18.582;2022-12-18T04:52:26;11.90;;;3.30;;
69434;SDS011;56625;54.322;18.582;2022-12-18T04:54:54;11.90;;;4.50;;
69434;SDS011;56625;54.322;18.582;2022-12-18T04:57:22;9.00;;;2.60;;
69434;SDS011;56625;54.322;18.582;2022-12-18T04:59:50;7.90;;;2.60;;
69434;SDS011;56625;54.322;18.582;2022-12-18T05:02:18;10.80;;;3.90;;
69434;SDS011;56625;54.322;18.582;2022-12-18T05:04:46;12.60;;;4.40;;
69434;SDS011;56625;54.322;18.582;2022-12-18T05:07:14;8.20;;;2.50;;
69434;SDS011;56625;54.322;18.582;2022-12-18T05:09:42;10.60;;;3.70;;
69434;SDS011;56625;54.322;18.582;2022-12-18T05:12:10;11.60;;;3.20;;
69434;SDS011;56625;54.322;18.582;2022-12-18T05:14:38;11.40;;;3.70;;
69434;SDS011;56625;54.322;18.582;2022-12-18T05:17:05;10.40;;;3.30;;
69434;SDS011;56625;54.322;18.582;2022-12-18T05:19:33;12.30;;;4.30;;
69434;SDS011;56625;54.322;18.582;2022-12-18T05:22:01;15.00;;;3.40;;
69434;SDS011;56625;54.322;18.582;2022-12-18T05:24:29;13.20;;;4.40;;
69434;SDS011;56625;54.322;18.582;2022-12-18T05:26:57;10.90;;;3.50;;
69434;SDS011;56625;54.322;18.582;2022-12-18T05:29:25;10.60;;;4.00;;
69434;SDS011;56625;54.322;18.582;2022-12-18T05:31:53;13.40;;;4.20;;
69434;SDS011;56625;54.322;18.582;2022-12-18T05:34:21;12.20;;;3.90;;
69434;SDS011;56625;54.322;18.582;2022-12-18T05:36:48;11.20;;;3.60;;
69434;SDS011;56625;54.322;18.582;2022-12-18T05:39:16;11.70;;;4.70;;
69434;SDS011;56625;54.322;18.582;2022-12-18T05:41:44;10.80;;;3.60;;
69434;SDS011;56625;54.322;18.582;2022-12-18T05:44:13;13.10;;;4.80;;
69434;SDS011;56625;54.322;18.582;2022-12-18T05:46:41;10.10;;;3.10;;
69434;SDS011;56625;54.322;18.582;2022-12-18T05:49:09;13.30;;;3.50;;
69434;SDS011;56625;54.322;18.582;2022-12-18T05:51:37;19.00;;;4.90;;
69434;SDS011;56625;54.322;18.582;2022-12-18T05:54:05;12.80;;;4.10;;
69434;SDS011;56625;54.322;18.582;2022-12-18T05:56:33;10.30;;;3.00;;
69434;SDS011;56625;54.322;18.582;2022-12-18T05:59:01;12.10;;;3.90;;
69434;SDS011;56625;54.322;18.582;2022-12-18T06:01:29;9.00;;;2.30;;
69434;SDS011;56625;54.322;18.582;2022-12-18T06:03:57;11.50;;;3.40;;
69434;SDS011;56625;54.322;18.582;2022-12-18T06:06:26;11.30;;;4.30;;
69434;SDS011;56625;54.322;18.582;2022-12-18T06:08:56;7.00;;;2.20;;
69434;SDS011;56625;54.322;18.582;2022-12-18T06:11:25;12.40;;;3.70;;
69434;SDS011;56625;54.322;18.582;2022-12-18T06:13:55;9.50;;;3.50;;
69434;SDS011;56625;54.322;18.582;2022-12-18T06:16:28;8.50;;;3.10;;
69434;SDS011;56625;54.322;18.582;2022-12-18T06:18:59;11.30;;;3.90;;
69434;SDS011;56625;54.322;18.582;2022-12-18T06:21:28;14.30;;;3.50;;
69434;SDS011;56625;54.322;18.582;2022-12-18T06:23:59;10.20;;;3.20;;
69434;SDS011;56625;54.322;18.582;2022-12-18T06:26:27;11.70;;;3.10;;
69434;SDS011;56625;54.322;18.582;2022-12-18T06:28:55;10.50;;;3.00;;
69434;SDS011;56625;54.322;18.582;2022-12-18T06:31:24;10.60;;;3.40;;
69434;SDS011;56625;54.322;18.582;2022-12-18T06:33:53;11.00;;;3.30;;
69434;SDS011;56625;54.322;18.582;2022-12-18T06:36:20;9.50;;;3.20;;
69434;SDS011;56625;54.322;18.582;2022-12-18T06:38:48;7.40;;;2.40;;
69434;SDS011;56625;54.322;18.582;2022-12-18T06:41:19;9.00;;;2.30;;
69434;SDS011;56625;54.322;18.582;2022-12-18T06:43:49;11.70;;;4.50;;
69434;SDS011;56625;54.322;18.582;2022-12-18T06:46:16;9.80;;;3.30;;
69434;SDS011;56625;54.322;18.582;2022-12-18T06:48:49;11.10;;;3.20;;
69434;SDS011;56625;54.322;18.582;2022-12-18T06:51:19;9.40;;;2.20;;
69434;SDS011;56625;54.322;18.582;2022-12-18T06:53:48;11.10;;;2.70;;
69434;SDS011;56625;54.322;18.582;2022-12-18T06:56:16;11.60;;;3.40;;
69434;SDS011;56625;54.322;18.582;2022-12-18T06:58:44;8.20;;;2.40;;
69434;SDS011;56625;54.322;18.582;2022-12-18T07:01:13;11.50;;;3.10;;
69434;SDS011;56625;54.322;18.582;2022-12-18T07:03:42;10.50;;;3.40;;
69434;SDS011;56625;54.322;18.582;2022-12-18T07:06:19;14.60;;;3.30;;
69434;SDS011;56625;54.322;18.582;2022-12-18T07:08:48;9.00;;;3.00;;
69434;SDS011;56625;54.322;18.582;2022-12-18T07:11:18;17.70;;;5.20;;
69434;SDS011;56625;54.322;18.582;2022-12-18T07:13:47;13.00;;;3.60;;
69434;SDS011;56625;54.322;18.582;2022-12-18T07:16:19;12.30;;;3.90;;
69434;SDS011;56625;54.322;18.582;2022-12-18T07:18:54;14.20;;;4.30;;
69434;SDS011;56625;54.322;18.582;2022-12-18T07:21:23;14.80;;;4.40;;
69434;SDS011;56625;54.322;18.582;2022-12-18T07:23:53;15.90;;;5.20;;
69434;SDS011;56625;54.322;18.582;2022-12-18T07:26:22;12.10;;;3.60;;
69434;SDS011;56625;54.322;18.582;2022-12-18T07:28:55;14.10;;;4.20;;
69434;SDS011;56625;54.322;18.582;2022-12-18T07:31:25;14.80;;;4.20;;
69434;SDS011;56625;54.322;18.582;2022-12-18T07:33:54;8.20;;;2.50;;
69434;SDS011;56625;54.322;18.582;2022-12-18T07:36:22;14.00;;;4.90;;
69434;SDS011;56625;54.322;18.582;2022-12-18T07:38:50;8.50;;;2.90;;
69434;SDS011;56625;54.322;18.582;2022-12-18T07:41:22;13.80;;;2.90;;
69434;SDS011;56625;54.322;18.582;2022-12-18T07:43:50;11.80;;;3.50;;
69434;SDS011;56625;54.322;18.582;2022-12-18T07:46:19;13.60;;;3.40;;
69434;SDS011;56625;54.322;18.582;2022-12-18T07:48:47;9.60;;;3.10;;
69434;SDS011;56625;54.322;18.582;2022-12-18T07:51:18;14.80;;;4.20;;
69434;SDS011;56625;54.322;18.582;2022-12-18T07:53:46;14.00;;;4.20;;
69434;SDS011;56625;54.322;18.582;2022-12-18T07:56:19;8.90;;;2.80;;
69434;SDS011;56625;54.322;18.582;2022-12-18T07:58:58;13.20;;;4.10;;
69434;SDS011;56625;54.322;18.582;2022-12-18T08:01:27;12.70;;;4.00;;
69434;SDS011;56625;54.322;18.582;2022-12-18T08:03:57;12.90;;;4.30;;
69434;SDS011;56625;54.322;18.582;2022-12-18T08:06:25;11.90;;;3.50;;
69434;SDS011;56625;54.322;18.582;2022-12-18T08:08:54;11.80;;;3.90;;
69434;SDS011;56625;54.322;18.582;2022-12-18T08:11:26;6.20;;;1.30;;
69434;SDS011;56625;54.322;18.582;2022-12-18T08:13:55;11.90;;;3.90;;
69434;SDS011;56625;54.322;18.582;2022-12-18T08:16:24;9.70;;;3.00;;
69434;SDS011;56625;54.322;18.582;2022-12-18T08:18:53;12.00;;;3.80;;
69434;SDS011;56625;54.322;18.582;2022-12-18T08:21:27;8.30;;;2.30;;
69434;SDS011;56625;54.322;18.582;2022-12-18T08:23:59;7.60;;;1.90;;
69434;SDS011;56625;54.322;18.582;2022-12-18T08:26:30;4.50;;;1.50;;
69434;SDS011;56625;54.322;18.582;2022-12-18T08:28:59;8.30;;;2.30;;
69434;SDS011;56625;54.322;18.582;2022-12-18T08:31:29;9.00;;;2.40;;
69434;SDS011;56625;54.322;18.582;2022-12-18T08:33:58;9.30;;;3.30;;
69434;SDS011;56625;54.322;18.582;2022-12-18T08:36:26;8.60;;;2.30;;
69434;SDS011;56625;54.322;18.582;2022-12-18T08:38:54;10.80;;;3.30;;
69434;SDS011;56625;54.322;18.582;2022-12-18T08:41:22;9.80;;;2.60;;
69434;SDS011;56625;54.322;18.582;2022-12-18T08:43:50;10.30;;;3.40;;
69434;SDS011;56625;54.322;18.582;2022-12-18T08:46:39;9.80;;;2.90;;
69434;SDS011;56625;54.322;18.582;2022-12-18T08:49:09;8.20;;;2.50;;
69434;SDS011;56625;54.322;18.582;2022-12-18T08:51:39;6.50;;;1.90;;
69434;SDS011;56625;54.322;18.582;2022-12-18T08:54:07;13.20;;;4.40;;
69434;SDS011;56625;54.322;18.582;2022-12-18T08:56:39;10.50;;;2.50;;
69434;SDS011;56625;54.322;18.582;2022-12-18T08:59:08;7.50;;;1.90;;
69434;SDS011;56625;54.322;18.582;2022-12-18T09:01:46;7.30;;;2.00;;
69434;SDS011;56625;54.322;18.582;2022-12-18T09:04:14;7.70;;;2.00;;
69434;SDS011;56625;54.322;18.582;2022-12-18T09:06:43;6.50;;;1.80;;
69434;SDS011;56625;54.322;18.582;2022-12-18T09:09:11;8.20;;;2.10;;
69434;SDS011;56625;54.322;18.582;2022-12-18T09:11:39;10.80;;;3.20;;
69434;SDS011;56625;54.322;18.582;2022-12-18T09:14:09;9.50;;;3.00;;
69434;SDS011;56625;54.322;18.582;2022-12-18T09:16:37;11.30;;;3.40;;
69434;SDS011;56625;54.322;18.582;2022-12-18T09:19:05;9.60;;;3.30;;
69434;SDS011;56625;54.322;18.582;2022-12-18T09:21:37;13.80;;;3.60;;
69434;SDS011;56625;54.322;18.582;2022-12-18T09:24:12;7.00;;;2.00;;
69434;SDS011;56625;54.322;18.582;2022-12-18T09:26:41;8.90;;;2.70;;
69434;SDS011;56625;54.322;18.582;2022-12-18T09:29:15;10.90;;;3.30;;
69434;SDS011;56625;54.322;18.582;2022-12-18T09:31:46;10.10;;;3.00;;
69434;SDS011;56625;54.322;18.582;2022-12-18T09:34:14;9.70;;;2.90;;
69434;SDS011;56625;54.322;18.582;2022-12-18T09:36:43;9.10;;;2.60;;
69434;SDS011;56625;54.322;18.582;2022-12-18T09:39:11;13.40;;;3.00;;
69434;SDS011;56625;54.322;18.582;2022-12-18T09:41:44;9.50;;;2.70;;
69434;SDS011;56625;54.322;18.582;2022-12-18T09:47:04;8.30;;;2.30;;
69434;SDS011;56625;54.322;18.582;2022-12-18T09:49:39;9.00;;;2.50;;
69434;SDS011;56625;54.322;18.582;2022-12-18T09:52:17;10.10;;;2.30;;
69434;SDS011;56625;54.322;18.582;2022-12-18T09:55:21;11.30;;;3.80;;
69434;SDS011;56625;54.322;18.582;2022-12-18T09:57:56;9.90;;;3.30;;
69434;SDS011;56625;54.322;18.582;2022-12-18T10:00:47;9.20;;;2.10;;
69434;SDS011;56625;54.322;18.582;2022-12-18T10:03:15;6.50;;;1.60;;
69434;SDS011;56625;54.322;18.582;2022-12-18T10:06:05;13.00;;;3.60;;
69434;SDS011;56625;54.322;18.582;2022-12-18T10:09:03;11.80;;;2.60;;
69434;SDS011;56625;54.322;18.582;2022-12-18T10:11:43;7.50;;;2.00;;
69434;SDS011;56625;54.322;18.582;2022-12-18T10:14:42;11.50;;;3.20;;
69434;SDS011;56625;54.322;18.582;2022-12-18T10:17:36;7.50;;;2.10;;
69434;SDS011;56625;54.322;18.582;2022-12-18T10:23:44;5.80;;;1.20;;
69434;SDS011;56625;54.322;18.582;2022-12-18T10:26:34;10.60;;;3.00;;
69434;SDS011;56625;54.322;18.582;2022-12-18T10:29:08;7.70;;;2.00;;
69434;SDS011;56625;54.322;18.582;2022-12-18T10:31:40;7.80;;;1.90;;
69434;SDS011;56625;54.322;18.582;2022-12-18T10:34:14;10.00;;;2.80;;
69434;SDS011;56625;54.322;18.582;2022-12-18T10:36:42;9.10;;;2.50;;
69434;SDS011;56625;54.322;18.582;2022-12-18T10:39:24;12.10;;;2.40;;
69434;SDS011;56625;54.322;18.582;2022-12-18T10:42:11;5.80;;;1.80;;
69434;SDS011;56625;54.322;18.582;2022-12-18T10:45:01;10.50;;;2.60;;
69434;SDS011;56625;54.322;18.582;2022-12-18T10:47:33;7.30;;;1.90;;
69434;SDS011;56625;54.322;18.582;2022-12-18T10:50:03;11.50;;;2.50;;
69434;SDS011;56625;54.322;18.582;2022-12-18T10:52:31;7.90;;;2.30;;
69434;SDS011;56625;54.322;18.582;2022-12-18T10:55:02;7.90;;;3.00;;
69434;SDS011;56625;54.322;18.582;2022-12-18T10:57:39;6.50;;;2.20;;
69434;SDS011;56625;54.322;18.582;2022-12-18T11:00:28;10.00;;;2.00;;
69434;SDS011;56625;54.322;18.582;2022-12-18T11:02:57;8.20;;;2.40;;
69434;SDS011;56625;54.322;18.582;2022-12-18T11:05:35;7.80;;;2.00;;
69434;SDS011;56625;54.322;18.582;2022-12-18T11:08:04;9.60;;;2.60;;
69434;SDS011;56625;54.322;18.582;2022-12-18T11:10:36;9.90;;;2.90;;
69434;SDS011;56625;54.322;18.582;2022-12-18T11:13:31;9.10;;;2.50;;
69434;SDS011;56625;54.322;18.582;2022-12-18T11:15:59;6.90;;;2.10;;
69434;SDS011;56625;54.322;18.582;2022-12-18T11:18:37;6.80;;;2.10;;
69434;SDS011;56625;54.322;18.582;2022-12-18T11:21:10;8.50;;;2.60;;
69434;SDS011;56625;54.322;18.582;2022-12-18T11:23:51;12.60;;;3.50;;
69434;SDS011;56625;54.322;18.582;2022-12-18T11:26:20;8.60;;;2.40;;
69434;SDS011;56625;54.322;18.582;2022-12-18T11:29:10;11.10;;;3.40;;
69434;SDS011;56625;54.322;18.582;2022-12-18T11:31:46;7.70;;;2.30;;
69434;SDS011;56625;54.322;18.582;2022-12-18T11:34:31;8.80;;;2.10;;
69434;SDS011;56625;54.322;18.582;2022-12-18T11:37:01;10.90;;;2.80;;
69434;SDS011;56625;54.322;18.582;2022-12-18T11:39:46;11.20;;;2.70;;
69434;SDS011;56625;54.322;18.582;2022-12-18T11:42:49;7.90;;;2.50;;
69434;SDS011;56625;54.322;18.582;2022-12-18T11:45:33;10.40;;;2.80;;
69434;SDS011;56625;54.322;18.582;2022-12-18T11:48:28;7.50;;;2.10;;
69434;SDS011;56625;54.322;18.582;2022-12-18T11:51:03;7.30;;;1.40;;
69434;SDS011;56625;54.322;18.582;2022-12-18T11:53:37;8.20;;;2.20;;
69434;SDS011;56625;54.322;18.582;2022-12-18T11:59:04;8.50;;;1.80;;
69434;SDS011;56625;54.322;18.582;2022-12-18T12:02:12;7.70;;;2.00;;
69434;SDS011;56625;54.322;18.582;2022-12-18T12:04:50;7.60;;;1.40;;
69434;SDS011;56625;54.322;18.582;2022-12-18T12:11:08;5.80;;;1.80;;
69434;SDS011;56625;54.322;18.582;2022-12-18T12:16:31;6.50;;;2.00;;
69434;SDS011;56625;54.322;18.582;2022-12-18T12:22:35;9.00;;;2.20;;
69434;SDS011;56625;54.322;18.582;2022-12-18T12:34:33;10.70;;;3.10;;
69434;SDS011;56625;54.322;18.582;2022-12-18T12:37:35;7.80;;;2.50;;
69434;SDS011;56625;54.322;18.582;2022-12-18T12:40:06;11.60;;;2.90;;
69434;SDS011;56625;54.322;18.582;2022-12-18T12:42:58;4.00;;;1.10;;
69434;SDS011;56625;54.322;18.582;2022-12-18T12:45:58;7.10;;;1.70;;
69434;SDS011;56625;54.322;18.582;2022-12-18T12:48:32;8.10;;;2.40;;
69434;SDS011;56625;54.322;18.582;2022-12-18T12:51:08;6.50;;;2.00;;
69434;SDS011;56625;54.322;18.582;2022-12-18T12:53:41;9.20;;;2.70;;
69434;SDS011;56625;54.322;18.582;2022-12-18T12:56:13;9.40;;;2.40;;
69434;SDS011;56625;54.322;18.582;2022-12-18T12:58:54;12.40;;;3.80;;
69434;SDS011;56625;54.322;18.582;2022-12-18T13:01:58;9.90;;;3.00;;
69434;SDS011;56625;54.322;18.582;2022-12-18T13:04:42;6.30;;;1.70;;
69434;SDS011;56625;54.322;18.582;2022-12-18T13:12:57;10.40;;;2.90;;
69434;SDS011;56625;54.322;18.582;2022-12-18T13:20:49;8.10;;;2.90;;
69434;SDS011;56625;54.322;18.582;2022-12-18T13:23:39;10.50;;;3.60;;
69434;SDS011;56625;54.322;18.582;2022-12-18T13:28:56;8.70;;;2.40;;
69434;SDS011;56625;54.322;18.582;2022-12-18T13:34:23;11.10;;;3.60;;
69434;SDS011;56625;54.322;18.582;2022-12-18T13:36:57;13.10;;;4.40;;
69434;SDS011;56625;54.322;18.582;2022-12-18T13:39:59;9.00;;;2.30;;
69434;SDS011;56625;54.322;18.582;2022-12-18T13:42:40;12.90;;;3.30;;
69434;SDS011;56625;54.322;18.582;2022-12-18T13:45:42;9.80;;;2.40;;
69434;SDS011;56625;54.322;18.582;2022-12-18T13:48:24;11.30;;;3.60;;
69434;SDS011;56625;54.322;18.582;2022-12-18T13:50:59;14.80;;;4.20;;
69434;SDS011;56625;54.322;18.582;2022-12-18T13:53:35;9.50;;;2.50;;
69434;SDS011;56625;54.322;18.582;2022-12-18T13:56:05;6.80;;;1.80;;
69434;SDS011;56625;54.322;18.582;2022-12-18T13:58:34;10.10;;;3.00;;
69434;SDS011;56625;54.322;18.582;2022-12-18T14:01:02;11.00;;;2.40;;
69434;SDS011;56625;54.322;18.582;2022-12-18T14:03:32;10.90;;;3.30;;
69434;SDS011;56625;54.322;18.582;2022-12-18T14:06:03;10.30;;;2.50;;
69434;SDS011;56625;54.322;18.582;2022-12-18T14:08:39;8.30;;;3.10;;
69434;SDS011;56625;54.322;18.582;2022-12-18T14:11:19;11.90;;;3.30;;
69434;SDS011;56625;54.322;18.582;2022-12-18T14:13:53;7.60;;;2.00;;
69434;SDS011;56625;54.322;18.582;2022-12-18T14:16:21;5.50;;;1.00;;
69434;SDS011;56625;54.322;18.582;2022-12-18T14:18:57;11.60;;;2.80;;
69434;SDS011;56625;54.322;18.582;2022-12-18T14:21:46;12.60;;;3.40;;
69434;SDS011;56625;54.322;18.582;2022-12-18T14:24:19;6.80;;;1.70;;
69434;SDS011;56625;54.322;18.582;2022-12-18T14:26:50;11.90;;;3.20;;
69434;SDS011;56625;54.322;18.582;2022-12-18T14:29:27;10.00;;;2.90;;
69434;SDS011;56625;54.322;18.582;2022-12-18T14:32:23;13.60;;;4.30;;
69434;SDS011;56625;54.322;18.582;2022-12-18T14:34:53;16.40;;;5.40;;
69434;SDS011;56625;54.322;18.582;2022-12-18T14:37:24;11.50;;;3.90;;
69434;SDS011;56625;54.322;18.582;2022-12-18T14:39:54;12.20;;;3.90;;
69434;SDS011;56625;54.322;18.582;2022-12-18T14:42:25;11.80;;;3.00;;
69434;SDS011;56625;54.322;18.582;2022-12-18T14:51:19;10.90;;;3.70;;
69434;SDS011;56625;54.322;18.582;2022-12-18T14:54:06;7.40;;;1.90;;
69434;SDS011;56625;54.322;18.582;2022-12-18T14:56:55;11.80;;;3.70;;
69434;SDS011;56625;54.322;18.582;2022-12-18T14:59:29;13.90;;;3.80;;
69434;SDS011;56625;54.322;18.582;2022-12-18T15:04:43;14.20;;;4.20;;
69434;SDS011;56625;54.322;18.582;2022-12-18T15:10:11;16.90;;;5.50;;
69434;SDS011;56625;54.322;18.582;2022-12-18T15:13:08;16.70;;;4.90;;
69434;SDS011;56625;54.322;18.582;2022-12-18T15:15:48;16.90;;;5.70;;
69434;SDS011;56625;54.322;18.582;2022-12-18T15:18:19;19.70;;;5.90;;
69434;SDS011;56625;54.322;18.582;2022-12-18T15:21:07;23.50;;;7.90;;
69434;SDS011;56625;54.322;18.582;2022-12-18T15:26:13;22.40;;;8.10;;
69434;SDS011;56625;54.322;18.582;2022-12-18T15:28:55;22.20;;;7.20;;
69434;SDS011;56625;54.322;18.582;2022-12-18T15:34:09;18.90;;;6.50;;
69434;SDS011;56625;54.322;18.582;2022-12-18T15:36:41;15.10;;;4.50;;
69434;SDS011;56625;54.322;18.582;2022-12-18T15:39:12;18.20;;;6.30;;
69434;SDS011;56625;54.322;18.582;2022-12-18T15:41:40;20.80;;;6.80;;
69434;SDS011;56625;54.322;18.582;2022-12-18T15:44:28;21.30;;;6.30;;
69434;SDS011;56625;54.322;18.582;2022-12-18T15:46:57;19.90;;;6.00;;
69434;SDS011;56625;54.322;18.582;2022-12-18T15:49:26;22.20;;;6.10;;
69434;SDS011;56625;54.322;18.582;2022-12-18T15:51:57;19.90;;;6.40;;
69434;SDS011;56625;54.322;18.582;2022-12-18T15:54:27;23.10;;;6.50;;
69434;SDS011;56625;54.322;18.582;2022-12-18T15:57:13;22.50;;;6.80;;
69434;SDS011;56625;54.322;18.582;2022-12-18T15:59:51;19.00;;;5.80;;
69434;SDS011;56625;54.322;18.582;2022-12-18T16:02:22;16.80;;;4.60;;
69434;SDS011;56625;54.322;18.582;2022-12-18T16:04:51;20.30;;;5.70;;
69434;SDS011;56625;54.322;18.582;2022-12-18T16:07:20;14.90;;;4.00;;
69434;SDS011;56625;54.322;18.582;2022-12-18T16:09:55;12.00;;;3.80;;
69434;SDS011;56625;54.322;18.582;2022-12-18T16:12:32;13.40;;;3.70;;
69434;SDS011;56625;54.322;18.582;2022-12-18T16:15:01;16.30;;;5.00;;
69434;SDS011;56625;54.322;18.582;2022-12-18T16:17:29;16.40;;;5.40;;
69434;SDS011;56625;54.322;18.582;2022-12-18T16:19:58;14.70;;;3.70;;
69434;SDS011;56625;54.322;18.582;2022-12-18T16:22:28;9.80;;;3.50;;
69434;SDS011;56625;54.322;18.582;2022-12-18T16:24:57;18.10;;;6.10;;
69434;SDS011;56625;54.322;18.582;2022-12-18T16:27:25;7.40;;;2.40;;
69434;SDS011;56625;54.322;18.582;2022-12-18T16:29:53;19.00;;;5.60;;
69434;SDS011;56625;54.322;18.582;2022-12-18T16:32:22;19.30;;;5.50;;
69434;SDS011;56625;54.322;18.582;2022-12-18T16:34:51;15.40;;;3.80;;
69434;SDS011;56625;54.322;18.582;2022-12-18T16:37:19;19.70;;;4.80;;
69434;SDS011;56625;54.322;18.582;2022-12-18T16:39:46;14.80;;;4.70;;
69434;SDS011;56625;54.322;18.582;2022-12-18T16:42:19;16.80;;;4.10;;